Cuba, MO (65453)

7:52 PM CST on February 06, 2016 (GMT -0600)
Cuba | | Change Station
CLOSE
Current Station
Personal Weather Station
Location: Cuba, MO
Elevation: 1040 ft
Nearby Weather Stations

Elev 1040 ft 38.06 °N, 91.40 °W | Updated 14 minutes ago

Clear
Clear
43.7 °F
Feels Like 42 °F
N
3.2
Wind Variable Wind from West

Today
High -- | Low -- °F
--% Chance of Precip.
Yesterday
High -- | Low -- °F
Precip. -- in
Pressure 30.21 in
Visibility 10.0 miles
Clouds Clear
Windchill 42 °F
Dew Point 27 °F
Humidity 52%
Rainfall 0.00 in
Snow Depth Not available.
7:06 AM 5:33 PM
Waning Crescent, 3% visible
METAR KVIH 070053Z AUTO 22006KT 10SM CLR 05/M03 A3019 RMK AO2 RAB23E32 SLP229 P0000 T00501033 $
Pressure 30.21 in
Visibility 10.0 miles
Clouds Clear
Windchill 42 °F
Dew Point 27 °F
Humidity 52%
Rainfall 0.00 in
Snow Depth Not available.
7:06 AM 5:33 PM
Waning Crescent, 3% visible
METAR KVIH 070053Z AUTO 22006KT 10SM CLR 05/M03 A3019 RMK AO2 RAB23E32 SLP229 P0000 T00501033 $

10-Day Weather Forecast

Almanac

Astronomy

Feb. 06, 2016 Rise Set
Actual Time
Civil Twilight
Nautical Twilight
Astronomical Twilight
Moon
Length of Visible Light
Length of Day
Tomorrow will be .
, % of the Moon is Illuminated

Today's Extremes

State Highs State Lows

Community

WunderPhotos

Upload Photos

1,891,123 photos uploaded!

WunderBlog® & News

Nearby

Air Quality

  Air Quality AQ Index Pollutant
Not available.

Snow Depth

Station Depth Elevation

Earthquake Activity

City Distance Mag. Time & Date
Minimum magnitude displayed is 2.5.

Coastal Water Temperatures

Place Temperature

Stations

Nearby Weather Stations

Station Location Temp. Windchill Dew Point Humidity Wind Precip. Elev Updated Type
                   

Watches & Warnings

There are currently no watches in effect.